Time,TemperatureF,DewpointF,PressureIn,WindDirection,WindDirectionDegrees,WindSpeedMPH,WindSpeedGustMPH,Humidity,HourlyPrecipIn,Conditions,Clouds,dailyrainin,SoftwareType,DateUTC
2013-07-28 00:09:00,60.8,54.6,29.93,WNW,290,0.0,0.0,80,0.00,,,0.00,Wunderground v.1.15,2013-07-28 04:09:00,
2013-07-28 00:19:00,60.4,54.5,29.93,WNW,290,0.0,3.0,81,0.00,,,0.00,Wunderground v.1.15,2013-07-28 04:19:00,
2013-07-28 00:24:00,60.2,54.3,29.93,WNW,290,0.0,3.0,81,0.00,,,0.00,Wunderground v.1.15,2013-07-28 04:24:00,
2013-07-28 00:28:00,60.0,54.2,29.93,WNW,290,0.0,0.0,81,0.00,,,0.00,Wunderground v.1.15,2013-07-28 04:28:00,
2013-07-28 00:39:00,59.5,54.0,29.93,WNW,290,0.0,0.0,82,0.00,,,0.00,Wunderground v.1.15,2013-07-28 04:39:00,
2013-07-28 00:49:00,58.9,54.1,29.93,WNW,290,0.0,0.0,84,0.00,,,0.00,Wunderground v.1.15,2013-07-28 04:49:00,
2013-07-28 00:59:00,58.4,53.9,29.93,WNW,290,0.0,0.0,85,0.00,,,0.00,Wunderground v.1.15,2013-07-28 04:59:00,
2013-07-28 01:09:00,57.9,53.7,29.93,WNW,290,0.0,0.0,86,0.00,,,0.00,Wunderground v.1.15,2013-07-28 05:09:00,
2013-07-28 01:14:00,57.7,53.5,29.93,WNW,290,0.0,0.0,86,0.00,,,0.00,Wunderground v.1.15,2013-07-28 05:14:00,
2013-07-28 01:28:00,56.9,53.1,29.94,WNW,290,0.0,0.0,87,0.00,,,0.00,Wunderground v.1.15,2013-07-28 05:28:00,
2013-07-28 01:34:00,56.7,53.2,29.94,WNW,290,0.0,0.0,88,0.00,,,0.00,Wunderground v.1.15,2013-07-28 05:34:00,
2013-07-28 01:49:00,56.4,52.9,29.94,WNW,290,0.0,0.0,88,0.00,,,0.00,Wunderground v.1.15,2013-07-28 05:49:00,
2013-07-28 01:58:00,56.1,52.9,29.94,WNW,290,0.0,0.0,89,0.00,,,0.00,Wunderground v.1.15,2013-07-28 05:58:00,
2013-07-28 02:09:00,55.9,52.7,29.94,WNW,290,0.0,0.0,89,0.00,,,0.00,Wunderground v.1.15,2013-07-28 06:09:00,
2013-07-28 02:19:00,55.7,52.5,29.94,WNW,290,0.0,0.0,89,0.00,,,0.00,Wunderground v.1.15,2013-07-28 06:19:00,
2013-07-28 02:28:00,55.6,52.7,29.94,WNW,290,0.0,0.0,90,0.00,,,0.00,Wunderground v.1.15,2013-07-28 06:28:00,
2013-07-28 02:39:00,55.6,52.4,29.93,WNW,290,1.0,1.0,89,0.00,,,0.00,Wunderground v.1.15,2013-07-28 06:39:00,
2013-07-28 02:49:00,55.6,52.4,29.94,WNW,290,1.0,1.0,89,0.00,,,0.00,Wunderground v.1.15,2013-07-28 06:49:00,
2013-07-28 02:59:00,55.5,52.3,29.94,WNW,289,1.0,1.0,89,0.00,,,0.00,Wunderground v.1.15,2013-07-28 06:59:00,
2013-07-28 03:09:00,55.3,52.1,29.94,WNW,289,0.0,1.0,89,0.00,,,0.00,Wunderground v.1.15,2013-07-28 07:09:00,
2013-07-28 03:19:00,55.1,51.9,29.94,WNW,289,0.0,0.0,89,0.00,,,0.00,Wunderground v.1.15,2013-07-28 07:19:00,
2013-07-28 03:29:00,54.9,51.7,29.94,WNW,289,0.0,0.0,89,0.00,,,0.00,Wunderground v.1.15,2013-07-28 07:29:00,
2013-07-28 03:39:00,54.5,51.3,29.94,WNW,289,0.0,0.0,89,0.00,,,0.00,Wunderground v.1.15,2013-07-28 07:39:00,
2013-07-28 03:48:00,54.3,51.4,29.94,WNW,289,0.0,1.0,90,0.00,,,0.00,Wunderground v.1.15,2013-07-28 07:48:00,
2013-07-28 03:59:00,54.1,51.2,29.94,WNW,289,0.0,0.0,90,0.00,,,0.00,Wunderground v.1.15,2013-07-28 07:59:00,
2013-07-28 04:04:00,54.0,51.1,29.94,WNW,289,0.0,0.0,90,0.00,,,0.00,Wunderground v.1.15,2013-07-28 08:04:00,
2013-07-28 04:14:00,53.8,51.2,29.95,WNW,289,0.0,0.0,91,0.00,,,0.00,Wunderground v.1.15,2013-07-28 08:14:00,
2013-07-28 04:29:00,53.7,51.1,29.95,WNW,289,0.0,0.0,91,0.00,,,0.00,Wunderground v.1.15,2013-07-28 08:29:00,
2013-07-28 04:34:00,53.6,51.0,29.95,WNW,289,0.0,0.0,91,0.00,,,0.00,Wunderground v.1.15,2013-07-28 08:34:00,
2013-07-28 04:49:00,53.1,50.5,29.95,WNW,289,0.0,0.0,91,0.00,,,0.00,Wunderground v.1.15,2013-07-28 08:49:00,
2013-07-28 04:59:00,52.9,50.3,29.95,WNW,289,0.0,2.0,91,0.00,,,0.00,Wunderground v.1.15,2013-07-28 08:59:00,
2013-07-28 05:09:00,52.7,50.1,29.95,WNW,289,0.0,0.0,91,0.00,,,0.00,Wunderground v.1.15,2013-07-28 09:09:00,
2013-07-28 05:19:00,52.4,49.8,29.95,WNW,289,0.0,0.0,91,0.00,,,0.00,Wunderground v.1.15,2013-07-28 09:19:00,
2013-07-28 05:29:00,52.0,49.5,29.96,WNW,289,0.0,0.0,91,0.00,,,0.00,Wunderground v.1.15,2013-07-28 09:29:00,
2013-07-28 05:39:00,51.7,49.5,29.96,WNW,289,0.0,0.0,92,0.00,,,0.00,Wunderground v.1.15,2013-07-28 09:39:00,
2013-07-28 05:49:00,51.3,49.1,29.96,WNW,289,0.0,0.0,92,0.00,,,0.00,Wunderground v.1.15,2013-07-28 09:49:00,
2013-07-28 05:59:00,51.0,48.8,29.96,WNW,289,0.0,0.0,92,0.00,,,0.00,Wunderground v.1.15,2013-07-28 09:59:00,
2013-07-28 06:09:00,50.8,48.6,29.97,WNW,289,0.0,0.0,92,0.00,,,0.00,Wunderground v.1.15,2013-07-28 10:09:00,
2013-07-28 06:14:00,50.6,48.7,29.97,WNW,289,0.0,0.0,93,0.00,,,0.00,Wunderground v.1.15,2013-07-28 10:14:00,
2013-07-28 06:28:00,50.4,48.5,29.98,WNW,289,0.0,0.0,93,0.00,,,0.00,Wunderground v.1.15,2013-07-28 10:28:00,
2013-07-28 06:39:00,50.2,48.3,29.99,WNW,289,0.0,0.0,93,0.00,,,0.00,Wunderground v.1.15,2013-07-28 10:39:00,
2013-07-28 06:49:00,50.1,48.2,29.99,WNW,289,0.0,0.0,93,0.00,,,0.00,Wunderground v.1.15,2013-07-28 10:49:00,
2013-07-28 06:59:00,50.0,48.1,29.99,WNW,289,0.0,0.0,93,0.00,,,0.00,Wunderground v.1.15,2013-07-28 10:59:00,
2013-07-28 07:08:00,50.2,48.5,30.00,WNW,289,0.0,0.0,94,0.00,,,0.00,Wunderground v.1.15,2013-07-28 11:08:00,
2013-07-28 07:19:00,50.4,48.7,30.00,WNW,289,0.0,1.0,94,0.00,,,0.00,Wunderground v.1.15,2013-07-28 11:19:00,
2013-07-28 07:24:00,50.8,49.1,30.00,WNW,289,1.0,1.0,94,0.00,,,0.00,Wunderground v.1.15,2013-07-28 11:24:00,
2013-07-28 07:39:00,51.5,49.8,30.00,WNW,289,1.0,1.0,94,0.00,,,0.00,Wunderground v.1.15,2013-07-28 11:39:00,
2013-07-28 07:49:00,52.3,50.3,30.01,WNW,289,2.0,2.0,93,0.00,,,0.00,Wunderground v.1.15,2013-07-28 11:49:00,
2013-07-28 07:59:00,53.1,51.1,30.01,West,268,2.0,2.0,93,0.00,,,0.00,Wunderground v.1.15,2013-07-28 11:59:00,
2013-07-28 08:09:00,54.1,51.8,30.01,West,268,0.0,0.0,92,0.00,,,0.00,Wunderground v.1.15,2013-07-28 12:09:00,
2013-07-28 08:14:00,54.6,52.0,30.01,West,270,0.0,0.0,91,0.00,,,0.00,Wunderground v.1.15,2013-07-28 12:14:00,
2013-07-28 08:29:00,55.7,52.2,30.01,West,270,1.0,1.0,88,0.00,,,0.00,Wunderground v.1.15,2013-07-28 12:29:00,
2013-07-28 08:39:00,56.3,52.2,30.02,SW,234,2.0,2.0,86,0.00,,,0.00,Wunderground v.1.15,2013-07-28 12:39:00,
2013-07-28 08:49:00,56.9,52.4,30.02,SW,227,2.0,4.0,85,0.00,,,0.00,Wunderground v.1.15,2013-07-28 12:49:00,
2013-07-28 08:59:00,57.5,52.4,30.02,WSW,244,3.0,3.0,83,0.00,,,0.00,Wunderground v.1.15,2013-07-28 12:59:00,
2013-07-28 09:09:00,58.1,53.0,30.02,WSW,244,3.0,3.0,83,0.00,,,0.00,Wunderground v.1.15,2013-07-28 13:09:00,
2013-07-28 09:19:00,58.7,52.9,30.02,SW,225,3.0,3.0,81,0.00,,,0.00,Wunderground v.1.15,2013-07-28 13:19:00,
2013-07-28 09:29:00,59.5,53.7,30.02,West,271,2.0,3.0,81,0.00,,,0.00,Wunderground v.1.15,2013-07-28 13:29:00,
2013-07-28 09:39:00,59.8,51.5,30.02,WNW,297,4.0,5.0,74,0.00,,,0.00,Wunderground v.1.15,2013-07-28 13:39:00,
2013-07-28 09:49:00,60.3,51.6,30.02,WNW,290,3.0,4.0,73,0.00,,,0.00,Wunderground v.1.15,2013-07-28 13:49:00,
2013-07-28 09:59:00,60.9,51.8,30.02,WSW,253,3.0,4.0,72,0.00,,,0.00,Wunderground v.1.15,2013-07-28 13:59:00,
2013-07-28 10:09:00,61.4,53.0,30.02,West,271,4.0,4.0,74,0.00,,,0.00,Wunderground v.1.15,2013-07-28 14:09:00,
2013-07-28 10:19:00,61.8,51.1,30.02,West,277,3.0,4.0,68,0.00,,,0.00,Wunderground v.1.15,2013-07-28 14:19:00,
2013-07-28 10:29:00,62.3,51.6,30.02,WSW,251,3.0,7.0,68,0.00,,,0.00,Wunderground v.1.15,2013-07-28 14:29:00,
2013-07-28 10:39:00,62.5,50.6,30.02,WSW,257,4.0,5.0,65,0.00,,,0.00,Wunderground v.1.15,2013-07-28 14:39:00,
2013-07-28 10:49:00,62.9,51.8,30.02,WSW,258,3.0,3.0,67,0.00,,,0.00,Wunderground v.1.15,2013-07-28 14:49:00,
2013-07-28 10:59:00,63.1,51.6,30.02,WSW,241,4.0,4.0,66,0.00,,,0.00,Wunderground v.1.15,2013-07-28 14:59:00,
2013-07-28 11:09:00,63.4,51.8,30.02,West,261,5.0,11.0,66,0.00,,,0.00,Wunderground v.1.15,2013-07-28 15:09:00,
2013-07-28 11:19:00,63.7,52.5,30.03,West,261,5.0,7.0,67,0.00,,,0.00,Wunderground v.1.15,2013-07-28 15:19:00,
2013-07-28 11:29:00,63.7,52.5,30.02,South,190,4.0,4.0,67,0.00,,,0.00,Wunderground v.1.15,2013-07-28 15:29:00,
2013-07-28 11:39:00,64.4,51.5,30.02,WSW,253,4.0,4.0,63,0.00,,,0.00,Wunderground v.1.15,2013-07-28 15:39:00,
2013-07-28 11:49:00,65.1,53.0,30.03,WSW,258,3.0,7.0,65,0.00,,,0.00,Wunderground v.1.15,2013-07-28 15:49:00,
2013-07-28 11:59:00,65.1,52.6,30.03,South,175,5.0,5.0,64,0.00,,,0.00,Wunderground v.1.15,2013-07-28 15:59:00,
2013-07-28 12:09:00,65.3,51.5,30.03,NW,309,5.0,5.0,61,0.00,,,0.00,Wunderground v.1.15,2013-07-28 16:09:00,
2013-07-28 12:14:00,65.5,51.7,30.03,WNW,286,5.0,5.0,61,0.00,,,0.00,Wunderground v.1.15,2013-07-28 16:14:00,
2013-07-28 12:29:00,65.7,51.9,30.03,NW,317,4.0,5.0,61,0.00,,,0.00,Wunderground v.1.15,2013-07-28 16:29:00,
2013-07-28 12:39:00,65.3,52.8,30.03,West,261,3.0,3.0,64,0.00,,,0.00,Wunderground v.1.15,2013-07-28 16:39:00,
2013-07-28 12:49:00,66.3,54.2,30.02,SSE,163,4.0,5.0,65,0.00,,,0.00,Wunderground v.1.15,2013-07-28 16:49:00,
2013-07-28 12:59:00,66.1,52.7,30.02,West,265,4.0,4.0,62,0.00,,,0.00,Wunderground v.1.15,2013-07-28 16:59:00,
2013-07-28 13:09:00,66.2,52.8,30.02,WSW,246,4.0,4.0,62,0.00,,,0.00,Wunderground v.1.15,2013-07-28 17:09:00,
2013-07-28 13:19:00,66.6,52.3,30.02,West,267,6.0,6.0,60,0.00,,,0.00,Wunderground v.1.15,2013-07-28 17:19:00,
2013-07-28 13:29:00,67.1,52.7,30.02,SW,229,5.0,9.0,60,0.00,,,0.00,Wunderground v.1.15,2013-07-28 17:29:00,
2013-07-28 13:39:00,66.8,52.5,30.02,WSW,258,6.0,9.0,60,0.00,,,0.00,Wunderground v.1.15,2013-07-28 17:39:00,
2013-07-28 13:44:00,66.9,52.6,30.02,West,265,6.0,9.0,60,0.00,,,0.00,Wunderground v.1.15,2013-07-28 17:44:00,
2013-07-28 13:59:00,67.3,52.9,30.02,WSW,254,4.0,7.0,60,0.00,,,0.00,Wunderground v.1.15,2013-07-28 17:59:00,
2013-07-28 14:09:00,67.3,53.4,30.01,WSW,243,5.0,5.0,61,0.00,,,0.00,Wunderground v.1.15,2013-07-28 18:09:00,
2013-07-28 14:19:00,67.0,53.1,30.01,SW,217,4.0,4.0,61,0.00,,,0.00,Wunderground v.1.15,2013-07-28 18:19:00,
2013-07-28 14:29:00,67.8,52.9,30.02,WSW,238,4.0,7.0,59,0.00,,,0.00,Wunderground v.1.15,2013-07-28 18:29:00,
2013-07-28 14:39:00,67.2,54.2,30.02,West,260,4.0,4.0,63,0.00,,,0.00,Wunderground v.1.15,2013-07-28 18:39:00,
2013-07-28 14:49:00,67.6,53.7,30.02,SSW,205,5.0,5.0,61,0.00,,,0.00,Wunderground v.1.15,2013-07-28 18:49:00,
2013-07-28 14:59:00,68.8,53.9,30.01,WSW,248,5.0,5.0,59,0.00,,,0.00,Wunderground v.1.15,2013-07-28 18:59:00,
2013-07-28 15:09:00,68.9,54.0,30.01,West,261,4.0,5.0,59,0.00,,,0.00,Wunderground v.1.15,2013-07-28 19:09:00,
2013-07-28 15:14:00,69.0,54.1,30.01,WSW,248,5.0,7.0,59,0.00,,,0.00,Wunderground v.1.15,2013-07-28 19:14:00,
2013-07-28 15:24:00,68.9,54.0,30.00,WSW,256,6.0,6.0,59,0.00,,,0.00,Wunderground v.1.15,2013-07-28 19:24:00,
2013-07-28 15:39:00,69.3,57.0,30.00,WSW,257,3.0,3.0,65,0.00,,,0.00,Wunderground v.1.15,2013-07-28 19:39:00,
2013-07-28 15:49:00,69.0,54.5,30.01,SW,236,5.0,8.0,60,0.00,,,0.00,Wunderground v.1.15,2013-07-28 19:49:00,
2013-07-28 15:59:00,68.1,54.6,30.01,SSW,211,5.0,5.0,62,0.00,,,0.00,Wunderground v.1.15,2013-07-28 19:59:00,
2013-07-28 16:09:00,68.0,54.5,30.01,West,273,4.0,4.0,62,0.00,,,0.00,Wunderground v.1.15,2013-07-28 20:09:00,
2013-07-28 16:14:00,67.8,53.9,30.01,SW,215,3.0,7.0,61,0.00,,,0.00,Wunderground v.1.15,2013-07-28 20:14:00,
2013-07-28 16:29:00,67.5,53.6,30.01,SW,234,4.0,4.0,61,0.00,,,0.00,Wunderground v.1.15,2013-07-28 20:29:00,
2013-07-28 16:39:00,67.4,53.5,30.01,WSW,242,4.0,5.0,61,0.00,,,0.00,Wunderground v.1.15,2013-07-28 20:39:00,
2013-07-28 16:49:00,68.1,55.9,30.01,SW,229,3.0,3.0,65,0.00,,,0.00,Wunderground v.1.15,2013-07-28 20:49:00,
2013-07-28 16:59:00,69.4,54.4,30.01,WSW,241,5.0,5.0,59,0.00,,,0.00,Wunderground v.1.15,2013-07-28 20:59:00,
2013-07-28 17:09:00,69.6,53.7,30.01,SW,226,4.0,4.0,57,0.00,,,0.00,Wunderground v.1.15,2013-07-28 21:09:00,
2013-07-28 17:14:00,69.4,53.0,30.02,West,271,5.0,5.0,56,0.00,,,0.00,Wunderground v.1.15,2013-07-28 21:14:00,
2013-07-28 17:29:00,68.5,53.6,30.02,West,268,5.0,5.0,59,0.00,,,0.00,Wunderground v.1.15,2013-07-28 21:29:00,
2013-07-28 17:39:00,69.0,54.1,30.02,WSW,256,4.0,4.0,59,0.00,,,0.00,Wunderground v.1.15,2013-07-28 21:39:00,
2013-07-28 17:49:00,69.0,53.6,30.02,SSW,209,4.0,6.0,58,0.00,,,0.00,Wunderground v.1.15,2013-07-28 21:49:00,
2013-07-28 17:59:00,68.1,53.2,30.02,West,267,4.0,5.0,59,0.00,,,0.00,Wunderground v.1.15,2013-07-28 21:59:00,
2013-07-28 18:09:00,67.9,54.0,30.02,SSW,209,3.0,3.0,61,0.00,,,0.00,Wunderground v.1.15,2013-07-28 22:09:00,
2013-07-28 18:19:00,68.0,53.6,30.02,WSW,246,3.0,5.0,60,0.00,,,0.00,Wunderground v.1.15,2013-07-28 22:19:00,
2013-07-28 18:29:00,68.6,53.7,30.02,WSW,248,4.0,4.0,59,0.00,,,0.00,Wunderground v.1.15,2013-07-28 22:29:00,
2013-07-28 18:39:00,69.3,53.4,30.02,WSW,242,3.0,3.0,57,0.00,,,0.00,Wunderground v.1.15,2013-07-28 22:39:00,
2013-07-28 18:49:00,68.7,53.8,30.02,SSW,209,3.0,3.0,59,0.00,,,0.00,Wunderground v.1.15,2013-07-28 22:49:00,
2013-07-28 18:59:00,69.0,54.5,30.02,South,182,3.0,7.0,60,0.00,,,0.00,Wunderground v.1.15,2013-07-28 22:59:00,
2013-07-28 19:09:00,68.7,54.3,30.03,West,270,3.0,3.0,60,0.00,,,0.00,Wunderground v.1.15,2013-07-28 23:09:00,
2013-07-28 19:19:00,68.9,54.4,30.03,WSW,241,3.0,4.0,60,0.00,,,0.00,Wunderground v.1.15,2013-07-28 23:19:00,
2013-07-28 19:29:00,68.7,54.7,30.03,South,179,3.0,3.0,61,0.00,,,0.00,Wunderground v.1.15,2013-07-28 23:29:00,
2013-07-28 19:34:00,68.6,55.1,30.04,WSW,248,2.0,3.0,62,0.00,,,0.00,Wunderground v.1.15,2013-07-28 23:34:00,
2013-07-28 19:49:00,67.6,54.6,30.04,SSW,193,1.0,1.0,63,0.00,,,0.00,Wunderground v.1.15,2013-07-28 23:49:00,
2013-07-28 19:59:00,66.8,53.8,30.04,SW,225,2.0,2.0,63,0.00,,,0.00,Wunderground v.1.15,2013-07-28 23:59:00,
2013-07-28 20:09:00,66.3,54.2,30.05,WSW,254,1.0,1.0,65,0.00,,,0.00,Wunderground v.1.15,2013-07-29 00:09:00,
2013-07-28 20:19:00,65.7,54.4,30.05,WSW,254,0.0,0.0,67,0.00,,,0.00,Wunderground v.1.15,2013-07-29 00:19:00,
2013-07-28 20:29:00,65.2,54.4,30.05,WSW,254,0.0,0.0,68,0.00,,,0.00,Wunderground v.1.15,2013-07-29 00:29:00,
2013-07-28 20:39:00,64.8,54.8,30.05,WSW,254,0.0,0.0,70,0.00,,,0.00,Wunderground v.1.15,2013-07-29 00:39:00,
2013-07-28 20:48:00,64.3,54.7,30.05,WSW,254,0.0,0.0,71,0.00,,,0.00,Wunderground v.1.15,2013-07-29 00:48:00,
2013-07-28 20:59:00,63.7,56.0,30.05,WSW,254,0.0,0.0,76,0.00,,,0.00,Wunderground v.1.15,2013-07-29 00:59:00,
2013-07-28 21:09:00,63.2,54.8,30.05,WSW,254,1.0,1.0,74,0.00,,,0.00,Wunderground v.1.15,2013-07-29 01:09:00,
2013-07-28 21:19:00,63.2,55.1,30.06,WSW,254,0.0,0.0,75,0.00,,,0.00,Wunderground v.1.15,2013-07-29 01:19:00,
2013-07-28 21:29:00,63.1,54.7,30.06,WSW,254,0.0,3.0,74,0.00,,,0.00,Wunderground v.1.15,2013-07-29 01:29:00,
2013-07-28 21:39:00,63.1,54.7,30.06,WSW,254,0.0,0.0,74,0.00,,,0.00,Wunderground v.1.15,2013-07-29 01:39:00,
2013-07-28 21:49:00,62.9,55.2,30.07,WSW,254,0.0,0.0,76,0.00,,,0.00,Wunderground v.1.15,2013-07-29 01:49:00,
2013-07-28 21:59:00,62.5,54.5,30.07,WSW,254,0.0,0.0,75,0.00,,,0.00,Wunderground v.1.15,2013-07-29 01:59:00,
2013-07-28 22:09:00,62.2,54.5,30.07,WSW,254,0.0,0.0,76,0.00,,,0.00,Wunderground v.1.15,2013-07-29 02:09:00,
2013-07-28 22:14:00,61.9,54.6,30.07,WSW,254,0.0,0.0,77,0.00,,,0.00,Wunderground v.1.15,2013-07-29 02:14:00,
2013-07-28 22:29:00,61.4,55.2,30.07,WSW,254,0.0,1.0,80,0.00,,,0.00,Wunderground v.1.15,2013-07-29 02:29:00,
2013-07-28 22:39:00,61.1,54.9,30.07,WSW,254,0.0,0.0,80,0.00,,,0.00,Wunderground v.1.15,2013-07-29 02:39:00,
2013-07-28 22:44:00,60.9,54.7,30.07,WSW,254,0.0,0.0,80,0.00,,,0.00,Wunderground v.1.15,2013-07-29 02:44:00,
2013-07-28 23:09:00,60.1,54.6,30.07,WSW,254,0.0,0.0,82,0.00,,,0.00,Wunderground v.1.15,2013-07-29 03:09:00,
2013-07-28 23:19:00,59.5,54.3,30.07,WSW,254,0.0,0.0,83,0.00,,,0.00,Wunderground v.1.15,2013-07-29 03:19:00,
2013-07-28 23:39:00,58.7,53.9,30.07,WSW,254,0.0,0.0,84,0.00,,,0.00,Wunderground v.1.15,2013-07-29 03:39:00,
2013-07-28 23:49:00,58.4,53.6,30.07,WSW,254,0.0,0.0,84,0.00,,,0.00,Wunderground v.1.15,2013-07-29 03:49:00,
2013-07-28 23:59:00,58.4,53.6,30.07,WSW,254,0.0,0.0,84,0.00,,,0.00,Wunderground v.1.15,2013-07-29 03:59:00,